Fountain City, Indiana
Current Conditions -  °F | °C
As of 9:35 PM on Tuesday 21 Oct 2014 (Local Time) from KVES Reporting Station
Overcast Overcast  
Wind Chill:   Ceiling: 3500
Heat Index:   Visibility: 10mi
Dew Point:   Wind: 9mph
Humidity: 81%   Direction: 30°NNE
Pressure: 30.18"   Gusts: NA
Location:  39.96°N, 84.92°W
Report Text: KVES 220135Z AUTO 03008KT 10SM SCT025 OVC035 07/04 A3018 RMK AO2
Loading
Personal Weather Stations






























Interactive Weather Map
Tropical Storm Tracking
New forecast layout! Learn more

10-Day Weather Forecast

Advertisements
Track Severe Weather on mobile